Terminal Aerodrome Forecast
Issued by NWS

Home | Current Version | Previous Version | Text Only | Print | Product List | Glossary On
Versions: 1 2 3 4 5 6 7 8 9 10 11 12 13 14 15 16 17 18 19 20 21
000
FTUS44 KMAF 280534
TAFPEQ
TAF
KPEQ 280534Z 2806/2906 30006KT P6SM FEW250
     FM281100 36020G28KT P6SM SCT030
      TEMPO 2813/2817 BKN020
     FM281700 02014G20KT P6SM BKN040
     FM282200 06008KT P6SM SCT250=

USA.gov is the U.S. government's official web portal to all federal, state and local government web resources and services.